sensor_id;sensor_type;location;lat;lon;timestamp;P1;durP1;ratioP1;P2;durP2;ratioP2
12171;SDS011;6149;52.418;13.668;2022-08-01T00:01:16;6.73;;;3.60;;
12171;SDS011;6149;52.418;13.668;2022-08-01T00:03:42;3.97;;;3.63;;
12171;SDS011;6149;52.418;13.668;2022-08-01T00:06:09;4.83;;;3.70;;
12171;SDS011;6149;52.418;13.668;2022-08-01T00:08:36;7.50;;;4.00;;
12171;SDS011;6149;52.418;13.668;2022-08-01T00:11:02;3.90;;;3.60;;
12171;SDS011;6149;52.418;13.668;2022-08-01T00:13:29;4.20;;;3.80;;
12171;SDS011;6149;52.418;13.668;2022-08-01T00:15:57;4.87;;;3.80;;
12171;SDS011;6149;52.418;13.668;2022-08-01T00:18:23;4.27;;;3.87;;
12171;SDS011;6149;52.418;13.668;2022-08-01T00:20:50;4.90;;;4.50;;
12171;SDS011;6149;52.418;13.668;2022-08-01T00:23:16;4.40;;;3.77;;
12171;SDS011;6149;52.418;13.668;2022-08-01T00:25:43;4.87;;;4.30;;
12171;SDS011;6149;52.418;13.668;2022-08-01T00:28:09;4.33;;;3.93;;
12171;SDS011;6149;52.418;13.668;2022-08-01T00:30:36;4.77;;;4.20;;
12171;SDS011;6149;52.418;13.668;2022-08-01T00:33:04;4.37;;;4.03;;
12171;SDS011;6149;52.418;13.668;2022-08-01T00:35:30;5.67;;;4.00;;
12171;SDS011;6149;52.418;13.668;2022-08-01T00:37:57;6.50;;;4.53;;
12171;SDS011;6149;52.418;13.668;2022-08-01T00:40:24;4.67;;;4.10;;
12171;SDS011;6149;52.418;13.668;2022-08-01T00:42:50;5.03;;;4.10;;
12171;SDS011;6149;52.418;13.668;2022-08-01T00:45:17;4.73;;;4.33;;
12171;SDS011;6149;52.418;13.668;2022-08-01T00:47:44;5.63;;;4.40;;
12171;SDS011;6149;52.418;13.668;2022-08-01T00:50:12;4.70;;;4.30;;
12171;SDS011;6149;52.418;13.668;2022-08-01T00:52:38;6.77;;;4.40;;
12171;SDS011;6149;52.418;13.668;2022-08-01T00:55:07;4.53;;;4.20;;
12171;SDS011;6149;52.418;13.668;2022-08-01T00:57:35;5.03;;;4.30;;
12171;SDS011;6149;52.418;13.668;2022-08-01T01:00:03;5.13;;;4.60;;
12171;SDS011;6149;52.418;13.668;2022-08-01T01:02:32;5.13;;;4.37;;
12171;SDS011;6149;52.418;13.668;2022-08-01T01:04:59;4.83;;;4.47;;
12171;SDS011;6149;52.418;13.668;2022-08-01T01:07:28;4.67;;;4.17;;
12171;SDS011;6149;52.418;13.668;2022-08-01T01:10:05;4.87;;;4.40;;
12171;SDS011;6149;52.418;13.668;2022-08-01T01:12:47;5.10;;;4.60;;
12171;SDS011;6149;52.418;13.668;2022-08-01T01:15:23;5.53;;;4.60;;
12171;SDS011;6149;52.418;13.668;2022-08-01T01:17:57;4.73;;;4.33;;
12171;SDS011;6149;52.418;13.668;2022-08-01T01:20:30;6.57;;;4.53;;
12171;SDS011;6149;52.418;13.668;2022-08-01T01:23:12;4.87;;;4.40;;
12171;SDS011;6149;52.418;13.668;2022-08-01T01:25:57;4.73;;;4.33;;
12171;SDS011;6149;52.418;13.668;2022-08-01T01:29:02;5.90;;;4.60;;
12171;SDS011;6149;52.418;13.668;2022-08-01T01:31:33;4.73;;;4.20;;
12171;SDS011;6149;52.418;13.668;2022-08-01T01:34:09;5.63;;;4.40;;
12171;SDS011;6149;52.418;13.668;2022-08-01T01:36:37;4.70;;;4.30;;
12171;SDS011;6149;52.418;13.668;2022-08-01T01:39:06;4.60;;;4.20;;
12171;SDS011;6149;52.418;13.668;2022-08-01T01:41:33;4.50;;;4.10;;
12171;SDS011;6149;52.418;13.668;2022-08-01T01:44:04;6.23;;;4.70;;
12171;SDS011;6149;52.418;13.668;2022-08-01T01:46:32;5.33;;;4.30;;
12171;SDS011;6149;52.418;13.668;2022-08-01T01:49:00;4.33;;;3.93;;
12171;SDS011;6149;52.418;13.668;2022-08-01T01:51:28;4.70;;;4.20;;
12171;SDS011;6149;52.418;13.668;2022-08-01T01:53:56;5.37;;;4.10;;
12171;SDS011;6149;52.418;13.668;2022-08-01T01:56:24;4.40;;;4.03;;
12171;SDS011;6149;52.418;13.668;2022-08-01T01:58:53;4.63;;;4.23;;
12171;SDS011;6149;52.418;13.668;2022-08-01T02:01:25;4.10;;;3.80;;
12171;SDS011;6149;52.418;13.668;2022-08-01T02:03:55;4.73;;;4.23;;
12171;SDS011;6149;52.418;13.668;2022-08-01T02:06:23;4.40;;;4.00;;
12171;SDS011;6149;52.418;13.668;2022-08-01T02:08:51;4.10;;;3.80;;
12171;SDS011;6149;52.418;13.668;2022-08-01T02:11:19;4.47;;;4.07;;
12171;SDS011;6149;52.418;13.668;2022-08-01T02:13:46;4.70;;;4.40;;
12171;SDS011;6149;52.418;13.668;2022-08-01T02:16:21;4.20;;;3.90;;
12171;SDS011;6149;52.418;13.668;2022-08-01T02:18:52;4.40;;;4.00;;
12171;SDS011;6149;52.418;13.668;2022-08-01T02:21:20;4.43;;;4.13;;
12171;SDS011;6149;52.418;13.668;2022-08-01T02:23:54;5.90;;;4.33;;
12171;SDS011;6149;52.418;13.668;2022-08-01T02:26:26;5.13;;;4.37;;
12171;SDS011;6149;52.418;13.668;2022-08-01T02:28:54;5.20;;;4.70;;
12171;SDS011;6149;52.418;13.668;2022-08-01T02:31:27;7.70;;;4.60;;
12171;SDS011;6149;52.418;13.668;2022-08-01T02:34:00;12.30;;;6.70;;
12171;SDS011;6149;52.418;13.668;2022-08-01T02:36:33;5.97;;;4.87;;
12171;SDS011;6149;52.418;13.668;2022-08-01T02:39:02;10.53;;;5.90;;
12171;SDS011;6149;52.418;13.668;2022-08-01T02:41:33;7.40;;;5.57;;
12171;SDS011;6149;52.418;13.668;2022-08-01T02:44:07;11.60;;;7.00;;
12171;SDS011;6149;52.418;13.668;2022-08-01T02:46:39;10.20;;;5.53;;
12171;SDS011;6149;52.418;13.668;2022-08-01T02:49:15;8.70;;;5.80;;
12171;SDS011;6149;52.418;13.668;2022-08-01T02:51:44;5.50;;;5.00;;
12171;SDS011;6149;52.418;13.668;2022-08-01T02:54:13;6.53;;;5.23;;
12171;SDS011;6149;52.418;13.668;2022-08-01T02:56:43;7.63;;;5.67;;
12171;SDS011;6149;52.418;13.668;2022-08-01T02:59:12;6.77;;;5.50;;
12171;SDS011;6149;52.418;13.668;2022-08-01T03:01:43;5.80;;;5.30;;
12171;SDS011;6149;52.418;13.668;2022-08-01T03:04:11;5.87;;;5.37;;
12171;SDS011;6149;52.418;13.668;2022-08-01T03:06:39;5.40;;;4.90;;
12171;SDS011;6149;52.418;13.668;2022-08-01T03:09:06;5.97;;;5.37;;
12171;SDS011;6149;52.418;13.668;2022-08-01T03:11:34;6.33;;;5.47;;
12171;SDS011;6149;52.418;13.668;2022-08-01T03:14:06;5.47;;;4.97;;
12171;SDS011;6149;52.418;13.668;2022-08-01T03:16:36;5.87;;;4.90;;
12171;SDS011;6149;52.418;13.668;2022-08-01T03:19:08;5.23;;;4.80;;
12171;SDS011;6149;52.418;13.668;2022-08-01T03:21:37;6.83;;;5.70;;
12171;SDS011;6149;52.418;13.668;2022-08-01T03:24:05;6.57;;;5.70;;
12171;SDS011;6149;52.418;13.668;2022-08-01T03:26:36;6.10;;;5.50;;
12171;SDS011;6149;52.418;13.668;2022-08-01T03:29:05;5.60;;;5.07;;
12171;SDS011;6149;52.418;13.668;2022-08-01T03:31:37;6.93;;;5.70;;
12171;SDS011;6149;52.418;13.668;2022-08-01T03:34:09;5.77;;;5.30;;
12171;SDS011;6149;52.418;13.668;2022-08-01T03:36:37;5.87;;;5.37;;
12171;SDS011;6149;52.418;13.668;2022-08-01T03:39:11;5.93;;;5.53;;
12171;SDS011;6149;52.418;13.668;2022-08-01T03:41:41;5.90;;;5.40;;
12171;SDS011;6149;52.418;13.668;2022-08-01T03:44:15;5.60;;;5.10;;
12171;SDS011;6149;52.418;13.668;2022-08-01T03:46:47;4.93;;;4.53;;
12171;SDS011;6149;52.418;13.668;2022-08-01T03:49:22;6.03;;;5.53;;
12171;SDS011;6149;52.418;13.668;2022-08-01T03:51:52;7.37;;;6.00;;
12171;SDS011;6149;52.418;13.668;2022-08-01T03:54:21;5.57;;;5.07;;
12171;SDS011;6149;52.418;13.668;2022-08-01T03:56:51;5.03;;;4.63;;
12171;SDS011;6149;52.418;13.668;2022-08-01T03:59:18;7.10;;;5.33;;
12171;SDS011;6149;52.418;13.668;2022-08-01T04:01:46;6.07;;;5.57;;
12171;SDS011;6149;52.418;13.668;2022-08-01T04:04:14;5.60;;;4.77;;
12171;SDS011;6149;52.418;13.668;2022-08-01T04:06:42;5.90;;;5.17;;
12171;SDS011;6149;52.418;13.668;2022-08-01T04:09:09;5.20;;;4.70;;
12171;SDS011;6149;52.418;13.668;2022-08-01T04:11:37;4.93;;;4.53;;
12171;SDS011;6149;52.418;13.668;2022-08-01T04:14:04;6.80;;;5.43;;
12171;SDS011;6149;52.418;13.668;2022-08-01T04:16:31;5.67;;;5.17;;
12171;SDS011;6149;52.418;13.668;2022-08-01T04:18:57;5.37;;;4.97;;
12171;SDS011;6149;52.418;13.668;2022-08-01T04:21:24;5.70;;;5.20;;
12171;SDS011;6149;52.418;13.668;2022-08-01T04:23:55;6.07;;;5.50;;
12171;SDS011;6149;52.418;13.668;2022-08-01T04:26:25;5.43;;;4.93;;
12171;SDS011;6149;52.418;13.668;2022-08-01T04:28:53;6.00;;;5.50;;
12171;SDS011;6149;52.418;13.668;2022-08-01T04:31:21;5.63;;;5.07;;
12171;SDS011;6149;52.418;13.668;2022-08-01T04:33:51;5.70;;;5.20;;
12171;SDS011;6149;52.418;13.668;2022-08-01T04:36:22;5.03;;;4.63;;
12171;SDS011;6149;52.418;13.668;2022-08-01T04:38:50;5.90;;;5.40;;
12171;SDS011;6149;52.418;13.668;2022-08-01T04:41:24;5.20;;;4.80;;
12171;SDS011;6149;52.418;13.668;2022-08-01T04:43:51;6.00;;;5.40;;
12171;SDS011;6149;52.418;13.668;2022-08-01T04:46:19;7.03;;;5.73;;
12171;SDS011;6149;52.418;13.668;2022-08-01T04:48:47;6.13;;;5.50;;
12171;SDS011;6149;52.418;13.668;2022-08-01T04:51:15;8.10;;;5.53;;
12171;SDS011;6149;52.418;13.668;2022-08-01T04:53:46;7.23;;;5.20;;
12171;SDS011;6149;52.418;13.668;2022-08-01T04:56:17;5.70;;;5.20;;
12171;SDS011;6149;52.418;13.668;2022-08-01T04:58:45;5.17;;;4.77;;
12171;SDS011;6149;52.418;13.668;2022-08-01T05:01:13;6.47;;;5.87;;
12171;SDS011;6149;52.418;13.668;2022-08-01T05:03:40;6.00;;;5.50;;
12171;SDS011;6149;52.418;13.668;2022-08-01T05:06:07;6.30;;;5.57;;
12171;SDS011;6149;52.418;13.668;2022-08-01T05:08:34;6.53;;;5.83;;
12171;SDS011;6149;52.418;13.668;2022-08-01T05:11:01;6.23;;;5.63;;
12171;SDS011;6149;52.418;13.668;2022-08-01T05:13:29;6.70;;;6.10;;
12171;SDS011;6149;52.418;13.668;2022-08-01T05:15:59;6.70;;;5.83;;
12171;SDS011;6149;52.418;13.668;2022-08-01T05:18:28;6.63;;;6.00;;
12171;SDS011;6149;52.418;13.668;2022-08-01T05:20:55;8.13;;;7.37;;
12171;SDS011;6149;52.418;13.668;2022-08-01T05:23:21;6.90;;;6.20;;
12171;SDS011;6149;52.418;13.668;2022-08-01T05:25:48;7.93;;;6.40;;
12171;SDS011;6149;52.418;13.668;2022-08-01T05:28:15;7.00;;;5.83;;
12171;SDS011;6149;52.418;13.668;2022-08-01T05:30:43;9.27;;;6.80;;
12171;SDS011;6149;52.418;13.668;2022-08-01T05:33:09;7.37;;;6.63;;
12171;SDS011;6149;52.418;13.668;2022-08-01T05:35:36;7.53;;;6.73;;
12171;SDS011;6149;52.418;13.668;2022-08-01T05:38:03;7.37;;;6.63;;
12171;SDS011;6149;52.418;13.668;2022-08-01T05:40:29;8.10;;;6.73;;
12171;SDS011;6149;52.418;13.668;2022-08-01T05:42:56;8.03;;;7.23;;
12171;SDS011;6149;52.418;13.668;2022-08-01T05:45:22;7.97;;;7.17;;
12171;SDS011;6149;52.418;13.668;2022-08-01T05:47:50;7.00;;;6.40;;
12171;SDS011;6149;52.418;13.668;2022-08-01T05:50:16;6.80;;;6.20;;
12171;SDS011;6149;52.418;13.668;2022-08-01T05:52:43;9.03;;;8.13;;
12171;SDS011;6149;52.418;13.668;2022-08-01T05:55:10;9.67;;;8.77;;
12171;SDS011;6149;52.418;13.668;2022-08-01T05:57:36;9.27;;;8.00;;
12171;SDS011;6149;52.418;13.668;2022-08-01T06:00:03;9.17;;;8.27;;
12171;SDS011;6149;52.418;13.668;2022-08-01T06:02:31;9.50;;;8.60;;
12171;SDS011;6149;52.418;13.668;2022-08-01T06:04:59;8.27;;;7.50;;
12171;SDS011;6149;52.418;13.668;2022-08-01T06:07:26;9.30;;;8.50;;
12171;SDS011;6149;52.418;13.668;2022-08-01T06:09:53;9.10;;;8.40;;
12171;SDS011;6149;52.418;13.668;2022-08-01T06:12:19;8.30;;;7.53;;
12171;SDS011;6149;52.418;13.668;2022-08-01T06:14:45;7.70;;;7.10;;
12171;SDS011;6149;52.418;13.668;2022-08-01T06:17:12;6.97;;;6.37;;
12171;SDS011;6149;52.418;13.668;2022-08-01T06:19:39;9.23;;;7.97;;
12171;SDS011;6149;52.418;13.668;2022-08-01T06:22:06;8.40;;;7.60;;
12171;SDS011;6149;52.418;13.668;2022-08-01T06:24:33;7.20;;;6.60;;
12171;SDS011;6149;52.418;13.668;2022-08-01T06:27:00;6.80;;;6.30;;
12171;SDS011;6149;52.418;13.668;2022-08-01T06:29:26;7.33;;;6.73;;
12171;SDS011;6149;52.418;13.668;2022-08-01T06:31:53;7.80;;;6.87;;
12171;SDS011;6149;52.418;13.668;2022-08-01T06:34:19;6.77;;;6.10;;
12171;SDS011;6149;52.418;13.668;2022-08-01T06:36:47;6.20;;;5.60;;
12171;SDS011;6149;52.418;13.668;2022-08-01T06:39:15;6.73;;;6.07;;
12171;SDS011;6149;52.418;13.668;2022-08-01T06:41:41;6.20;;;5.60;;
12171;SDS011;6149;52.418;13.668;2022-08-01T06:44:11;6.07;;;5.57;;
12171;SDS011;6149;52.418;13.668;2022-08-01T06:46:38;5.30;;;4.90;;
12171;SDS011;6149;52.418;13.668;2022-08-01T06:49:04;5.90;;;5.40;;
12171;SDS011;6149;52.418;13.668;2022-08-01T06:51:31;5.97;;;5.07;;
12171;SDS011;6149;52.418;13.668;2022-08-01T06:53:57;5.47;;;4.40;;
12171;SDS011;6149;52.418;13.668;2022-08-01T06:56:25;5.33;;;4.30;;
12171;SDS011;6149;52.418;13.668;2022-08-01T06:58:52;7.13;;;5.07;;
12171;SDS011;6149;52.418;13.668;2022-08-01T07:01:21;5.13;;;4.13;;
12171;SDS011;6149;52.418;13.668;2022-08-01T07:03:48;6.00;;;4.67;;
12171;SDS011;6149;52.418;13.668;2022-08-01T07:06:14;4.90;;;4.40;;
12171;SDS011;6149;52.418;13.668;2022-08-01T07:08:41;4.97;;;4.57;;
12171;SDS011;6149;52.418;13.668;2022-08-01T07:11:08;4.60;;;4.20;;
12171;SDS011;6149;52.418;13.668;2022-08-01T07:13:36;4.87;;;4.47;;
12171;SDS011;6149;52.418;13.668;2022-08-01T07:16:02;4.57;;;4.17;;
12171;SDS011;6149;52.418;13.668;2022-08-01T07:18:29;6.40;;;4.23;;
12171;SDS011;6149;52.418;13.668;2022-08-01T07:20:56;6.03;;;4.60;;
12171;SDS011;6149;52.418;13.668;2022-08-01T07:23:23;4.83;;;4.43;;
12171;SDS011;6149;52.418;13.668;2022-08-01T07:25:49;5.10;;;4.60;;
12171;SDS011;6149;52.418;13.668;2022-08-01T07:28:17;4.53;;;4.13;;
12171;SDS011;6149;52.418;13.668;2022-08-01T07:30:45;6.40;;;5.33;;
12171;SDS011;6149;52.418;13.668;2022-08-01T07:33:12;6.67;;;5.20;;
12171;SDS011;6149;52.418;13.668;2022-08-01T07:35:38;5.67;;;5.13;;
12171;SDS011;6149;52.418;13.668;2022-08-01T07:38:05;5.70;;;4.60;;
12171;SDS011;6149;52.418;13.668;2022-08-01T07:40:33;4.70;;;4.30;;
12171;SDS011;6149;52.418;13.668;2022-08-01T07:43:00;4.60;;;4.17;;
12171;SDS011;6149;52.418;13.668;2022-08-01T07:45:26;3.87;;;3.53;;
12171;SDS011;6149;52.418;13.668;2022-08-01T07:47:54;4.00;;;3.70;;
12171;SDS011;6149;52.418;13.668;2022-08-01T07:50:22;4.60;;;3.73;;
12171;SDS011;6149;52.418;13.668;2022-08-01T07:52:48;4.10;;;3.70;;
12171;SDS011;6149;52.418;13.668;2022-08-01T07:55:15;3.60;;;3.30;;
12171;SDS011;6149;52.418;13.668;2022-08-01T07:57:41;3.50;;;3.20;;
12171;SDS011;6149;52.418;13.668;2022-08-01T08:00:08;4.80;;;3.13;;
12171;SDS011;6149;52.418;13.668;2022-08-01T08:02:36;5.80;;;3.40;;
12171;SDS011;6149;52.418;13.668;2022-08-01T08:05:04;3.73;;;3.00;;
12171;SDS011;6149;52.418;13.668;2022-08-01T08:07:32;3.27;;;2.97;;
12171;SDS011;6149;52.418;13.668;2022-08-01T08:09:59;3.20;;;2.90;;
12171;SDS011;6149;52.418;13.668;2022-08-01T08:12:26;3.00;;;2.70;;
12171;SDS011;6149;52.418;13.668;2022-08-01T08:14:52;3.43;;;3.13;;
12171;SDS011;6149;52.418;13.668;2022-08-01T08:17:19;3.40;;;3.10;;
12171;SDS011;6149;52.418;13.668;2022-08-01T08:19:45;3.83;;;3.13;;
12171;SDS011;6149;52.418;13.668;2022-08-01T08:22:13;2.90;;;2.70;;
12171;SDS011;6149;52.418;13.668;2022-08-01T08:24:40;3.30;;;3.00;;
12171;SDS011;6149;52.418;13.668;2022-08-01T08:27:07;3.27;;;2.90;;
12171;SDS011;6149;52.418;13.668;2022-08-01T08:29:33;3.07;;;2.77;;
12171;SDS011;6149;52.418;13.668;2022-08-01T08:32:00;3.33;;;3.03;;
12171;SDS011;6149;52.418;13.668;2022-08-01T08:34:27;3.30;;;3.03;;
12171;SDS011;6149;52.418;13.668;2022-08-01T08:36:55;4.93;;;3.00;;
12171;SDS011;6149;52.418;13.668;2022-08-01T08:39:24;3.00;;;2.73;;
12171;SDS011;6149;52.418;13.668;2022-08-01T08:41:51;4.20;;;3.10;;
12171;SDS011;6149;52.418;13.668;2022-08-01T08:44:18;3.17;;;2.90;;
12171;SDS011;6149;52.418;13.668;2022-08-01T08:46:46;5.80;;;3.47;;
12171;SDS011;6149;52.418;13.668;2022-08-01T08:49:17;6.23;;;3.03;;
12171;SDS011;6149;52.418;13.668;2022-08-01T08:51:47;3.03;;;2.80;;
12171;SDS011;6149;52.418;13.668;2022-08-01T08:54:15;4.00;;;3.60;;
12171;SDS011;6149;52.418;13.668;2022-08-01T08:56:47;4.10;;;3.80;;
12171;SDS011;6149;52.418;13.668;2022-08-01T08:59:15;4.07;;;3.77;;
12171;SDS011;6149;52.418;13.668;2022-08-01T09:01:42;4.63;;;4.23;;
12171;SDS011;6149;52.418;13.668;2022-08-01T09:04:09;5.50;;;4.87;;
12171;SDS011;6149;52.418;13.668;2022-08-01T09:06:37;6.90;;;5.27;;
12171;SDS011;6149;52.418;13.668;2022-08-01T09:09:04;5.57;;;5.07;;
12171;SDS011;6149;52.418;13.668;2022-08-01T09:11:33;6.40;;;4.70;;
12171;SDS011;6149;52.418;13.668;2022-08-01T09:14:03;5.63;;;5.13;;
12171;SDS011;6149;52.418;13.668;2022-08-01T09:16:32;5.10;;;4.70;;
12171;SDS011;6149;52.418;13.668;2022-08-01T09:19:12;5.07;;;4.67;;
12171;SDS011;6149;52.418;13.668;2022-08-01T09:21:55;5.23;;;4.60;;
12171;SDS011;6149;52.418;13.668;2022-08-01T09:24:24;4.43;;;4.03;;
12171;SDS011;6149;52.418;13.668;2022-08-01T09:26:51;4.37;;;4.07;;
12171;SDS011;6149;52.418;13.668;2022-08-01T09:29:22;4.40;;;4.03;;
12171;SDS011;6149;52.418;13.668;2022-08-01T09:31:53;4.43;;;3.93;;
12171;SDS011;6149;52.418;13.668;2022-08-01T09:34:24;4.33;;;3.93;;
12171;SDS011;6149;52.418;13.668;2022-08-01T09:36:53;4.10;;;3.73;;
12171;SDS011;6149;52.418;13.668;2022-08-01T09:39:22;3.77;;;3.47;;
12171;SDS011;6149;52.418;13.668;2022-08-01T09:41:50;3.60;;;3.30;;
12171;SDS011;6149;52.418;13.668;2022-08-01T09:44:18;3.80;;;3.33;;
12171;SDS011;6149;52.418;13.668;2022-08-01T09:46:50;3.97;;;3.07;;
12171;SDS011;6149;52.418;13.668;2022-08-01T09:49:29;3.47;;;3.17;;
12171;SDS011;6149;52.418;13.668;2022-08-01T09:51:59;3.27;;;3.07;;
12171;SDS011;6149;52.418;13.668;2022-08-01T09:54:37;3.57;;;3.27;;
12171;SDS011;6149;52.418;13.668;2022-08-01T09:57:08;3.00;;;2.70;;
12171;SDS011;6149;52.418;13.668;2022-08-01T09:59:38;2.50;;;2.30;;
12171;SDS011;6149;52.418;13.668;2022-08-01T10:02:10;2.10;;;2.00;;
12171;SDS011;6149;52.418;13.668;2022-08-01T10:04:45;2.70;;;1.87;;
12171;SDS011;6149;52.418;13.668;2022-08-01T10:07:13;2.00;;;1.73;;
12171;SDS011;6149;52.418;13.668;2022-08-01T10:09:41;3.20;;;1.90;;
12171;SDS011;6149;52.418;13.668;2022-08-01T10:12:09;3.27;;;2.00;;
12171;SDS011;6149;52.418;13.668;2022-08-01T10:14:38;2.00;;;1.63;;
12171;SDS011;6149;52.418;13.668;2022-08-01T10:17:06;2.10;;;1.87;;
12171;SDS011;6149;52.418;13.668;2022-08-01T10:19:38;2.23;;;1.80;;
12171;SDS011;6149;52.418;13.668;2022-08-01T10:22:07;2.07;;;1.83;;
12171;SDS011;6149;52.418;13.668;2022-08-01T10:24:36;1.80;;;1.60;;
12171;SDS011;6149;52.418;13.668;2022-08-01T10:27:05;2.03;;;1.70;;
12171;SDS011;6149;52.418;13.668;2022-08-01T10:29:40;2.40;;;1.80;;
12171;SDS011;6149;52.418;13.668;2022-08-01T10:32:10;2.73;;;1.90;;
12171;SDS011;6149;52.418;13.668;2022-08-01T10:34:37;2.53;;;1.50;;
12171;SDS011;6149;52.418;13.668;2022-08-01T10:37:04;1.87;;;1.77;;
12171;SDS011;6149;52.418;13.668;2022-08-01T10:39:32;2.03;;;1.73;;
12171;SDS011;6149;52.418;13.668;2022-08-01T10:42:00;2.73;;;2.10;;
12171;SDS011;6149;52.418;13.668;2022-08-01T10:44:30;1.93;;;1.80;;
12171;SDS011;6149;52.418;13.668;2022-08-01T10:46:59;3.63;;;2.00;;
12171;SDS011;6149;52.418;13.668;2022-08-01T10:49:34;2.20;;;2.00;;
12171;SDS011;6149;52.418;13.668;2022-08-01T10:52:07;2.23;;;2.03;;
12171;SDS011;6149;52.418;13.668;2022-08-01T10:54:38;2.57;;;2.37;;
12171;SDS011;6149;52.418;13.668;2022-08-01T10:57:06;2.90;;;1.90;;
12171;SDS011;6149;52.418;13.668;2022-08-01T10:59:33;2.27;;;2.07;;
12171;SDS011;6149;52.418;13.668;2022-08-01T11:02:05;2.20;;;2.00;;
12171;SDS011;6149;52.418;13.668;2022-08-01T11:04:34;2.03;;;1.83;;
12171;SDS011;6149;52.418;13.668;2022-08-01T11:07:20;2.10;;;1.90;;
12171;SDS011;6149;52.418;13.668;2022-08-01T11:09:58;2.23;;;2.03;;
12171;SDS011;6149;52.418;13.668;2022-08-01T11:12:37;2.07;;;1.90;;
12171;SDS011;6149;52.418;13.668;2022-08-01T11:15:18;1.60;;;1.50;;
12171;SDS011;6149;52.418;13.668;2022-08-01T11:17:56;2.97;;;1.63;;
12171;SDS011;6149;52.418;13.668;2022-08-01T11:20:26;2.10;;;1.90;;
12171;SDS011;6149;52.418;13.668;2022-08-01T11:31:43;3.00;;;1.80;;
12171;SDS011;6149;52.418;13.668;2022-08-01T11:34:11;2.20;;;2.00;;
12171;SDS011;6149;52.418;13.668;2022-08-01T11:36:39;1.80;;;1.70;;
12171;SDS011;6149;52.418;13.668;2022-08-01T11:39:12;1.80;;;1.70;;
12171;SDS011;6149;52.418;13.668;2022-08-01T11:41:42;3.33;;;1.53;;
12171;SDS011;6149;52.418;13.668;2022-08-01T11:44:14;3.40;;;1.60;;
12171;SDS011;6149;52.418;13.668;2022-08-01T11:46:48;2.30;;;1.60;;
12171;SDS011;6149;52.418;13.668;2022-08-01T11:49:24;2.83;;;1.67;;
12171;SDS011;6149;52.418;13.668;2022-08-01T11:52:03;3.73;;;1.80;;
12171;SDS011;6149;52.418;13.668;2022-08-01T11:54:33;1.87;;;1.50;;
12171;SDS011;6149;52.418;13.668;2022-08-01T11:57:02;1.90;;;1.53;;
12171;SDS011;6149;52.418;13.668;2022-08-01T11:59:35;1.67;;;1.57;;
12171;SDS011;6149;52.418;13.668;2022-08-01T12:02:13;1.63;;;1.53;;
12171;SDS011;6149;52.418;13.668;2022-08-01T12:04:48;1.60;;;1.50;;
12171;SDS011;6149;52.418;13.668;2022-08-01T12:07:22;1.77;;;1.50;;
12171;SDS011;6149;52.418;13.668;2022-08-01T12:09:58;4.20;;;1.40;;
12171;SDS011;6149;52.418;13.668;2022-08-01T12:12:27;1.73;;;1.40;;
12171;SDS011;6149;52.418;13.668;2022-08-01T12:14:56;2.53;;;1.67;;
12171;SDS011;6149;52.418;13.668;2022-08-01T12:17:30;1.80;;;1.70;;
12171;SDS011;6149;52.418;13.668;2022-08-01T12:19:59;2.80;;;1.40;;
12171;SDS011;6149;52.418;13.668;2022-08-01T12:22:28;2.27;;;1.90;;
12171;SDS011;6149;52.418;13.668;2022-08-01T12:24:54;1.93;;;1.50;;
12171;SDS011;6149;52.418;13.668;2022-08-01T12:27:26;1.87;;;1.50;;
12171;SDS011;6149;52.418;13.668;2022-08-01T12:29:54;1.87;;;1.77;;
12171;SDS011;6149;52.418;13.668;2022-08-01T12:32:23;2.00;;;1.80;;
12171;SDS011;6149;52.418;13.668;2022-08-01T12:34:53;2.87;;;1.70;;
12171;SDS011;6149;52.418;13.668;2022-08-01T12:37:21;2.27;;;1.80;;
12171;SDS011;6149;52.418;13.668;2022-08-01T12:39:51;2.33;;;1.70;;
12171;SDS011;6149;52.418;13.668;2022-08-01T12:42:18;2.80;;;1.60;;
12171;SDS011;6149;52.418;13.668;2022-08-01T12:44:45;1.67;;;1.50;;
12171;SDS011;6149;52.418;13.668;2022-08-01T12:47:17;1.70;;;1.40;;
12171;SDS011;6149;52.418;13.668;2022-08-01T12:49:45;1.80;;;1.60;;
12171;SDS011;6149;52.418;13.668;2022-08-01T12:52:13;3.13;;;1.47;;
12171;SDS011;6149;52.418;13.668;2022-08-01T12:55:02;1.50;;;1.40;;
12171;SDS011;6149;52.418;13.668;2022-08-01T12:57:36;2.70;;;1.40;;
12171;SDS011;6149;52.418;13.668;2022-08-01T13:00:06;1.20;;;1.10;;
12171;SDS011;6149;52.418;13.668;2022-08-01T13:02:40;1.30;;;1.20;;
12171;SDS011;6149;52.418;13.668;2022-08-01T13:05:07;1.80;;;1.30;;
12171;SDS011;6149;52.418;13.668;2022-08-01T13:07:39;1.47;;;1.20;;
12171;SDS011;6149;52.418;13.668;2022-08-01T13:10:12;1.50;;;1.40;;
12171;SDS011;6149;52.418;13.668;2022-08-01T13:12:49;2.90;;;1.50;;
12171;SDS011;6149;52.418;13.668;2022-08-01T13:15:19;3.70;;;1.57;;
12171;SDS011;6149;52.418;13.668;2022-08-01T13:17:49;1.40;;;1.30;;
12171;SDS011;6149;52.418;13.668;2022-08-01T13:20:26;2.07;;;1.30;;
12171;SDS011;6149;52.418;13.668;2022-08-01T13:23:09;1.73;;;1.60;;
12171;SDS011;6149;52.418;13.668;2022-08-01T13:25:52;2.70;;;1.50;;
12171;SDS011;6149;52.418;13.668;2022-08-01T13:28:21;3.07;;;1.30;;
12171;SDS011;6149;52.418;13.668;2022-08-01T13:30:51;2.07;;;1.50;;
12171;SDS011;6149;52.418;13.668;2022-08-01T13:33:23;1.47;;;1.37;;
12171;SDS011;6149;52.418;13.668;2022-08-01T13:35:52;2.00;;;1.40;;
12171;SDS011;6149;52.418;13.668;2022-08-01T13:38:20;1.50;;;1.40;;
12171;SDS011;6149;52.418;13.668;2022-08-01T13:41:10;1.30;;;1.20;;
12171;SDS011;6149;52.418;13.668;2022-08-01T13:43:36;1.37;;;1.27;;
12171;SDS011;6149;52.418;13.668;2022-08-01T13:46:03;2.83;;;1.43;;
12171;SDS011;6149;52.418;13.668;2022-08-01T13:48:30;1.50;;;1.40;;
12171;SDS011;6149;52.418;13.668;2022-08-01T13:50:58;2.10;;;1.40;;
12171;SDS011;6149;52.418;13.668;2022-08-01T13:53:24;2.00;;;1.60;;
12171;SDS011;6149;52.418;13.668;2022-08-01T13:55:51;1.40;;;1.30;;
12171;SDS011;6149;52.418;13.668;2022-08-01T13:58:19;2.03;;;1.60;;
12171;SDS011;6149;52.418;13.668;2022-08-01T14:00:46;1.37;;;1.27;;
12171;SDS011;6149;52.418;13.668;2022-08-01T14:03:13;1.60;;;1.50;;
12171;SDS011;6149;52.418;13.668;2022-08-01T14:05:41;1.93;;;1.60;;
12171;SDS011;6149;52.418;13.668;2022-08-01T14:08:09;2.03;;;1.60;;
12171;SDS011;6149;52.418;13.668;2022-08-01T14:10:36;1.60;;;1.50;;
12171;SDS011;6149;52.418;13.668;2022-08-01T14:13:02;1.67;;;1.50;;
12171;SDS011;6149;52.418;13.668;2022-08-01T14:15:30;1.80;;;1.70;;
12171;SDS011;6149;52.418;13.668;2022-08-01T14:17:57;1.90;;;1.60;;
12171;SDS011;6149;52.418;13.668;2022-08-01T14:20:24;2.87;;;1.67;;
12171;SDS011;6149;52.418;13.668;2022-08-01T14:22:51;1.90;;;1.77;;
12171;SDS011;6149;52.418;13.668;2022-08-01T14:25:18;2.00;;;1.80;;
12171;SDS011;6149;52.418;13.668;2022-08-01T14:27:44;2.17;;;1.87;;
12171;SDS011;6149;52.418;13.668;2022-08-01T14:30:13;2.23;;;1.80;;
12171;SDS011;6149;52.418;13.668;2022-08-01T14:32:41;3.27;;;1.83;;
12171;SDS011;6149;52.418;13.668;2022-08-01T14:35:07;2.10;;;1.90;;
12171;SDS011;6149;52.418;13.668;2022-08-01T14:37:34;2.00;;;1.90;;
12171;SDS011;6149;52.418;13.668;2022-08-01T14:40:01;2.20;;;1.83;;
12171;SDS011;6149;52.418;13.668;2022-08-01T14:42:32;2.30;;;2.07;;
12171;SDS011;6149;52.418;13.668;2022-08-01T14:44:59;2.47;;;1.83;;
12171;SDS011;6149;52.418;13.668;2022-08-01T14:47:26;2.50;;;1.80;;
12171;SDS011;6149;52.418;13.668;2022-08-01T14:49:54;2.60;;;1.90;;
12171;SDS011;6149;52.418;13.668;2022-08-01T14:52:20;3.00;;;1.80;;
12171;SDS011;6149;52.418;13.668;2022-08-01T14:54:47;3.83;;;2.00;;
12171;SDS011;6149;52.418;13.668;2022-08-01T14:57:13;3.47;;;1.80;;
12171;SDS011;6149;52.418;13.668;2022-08-01T14:59:43;2.67;;;1.67;;
12171;SDS011;6149;52.418;13.668;2022-08-01T15:02:09;2.47;;;1.90;;
12171;SDS011;6149;52.418;13.668;2022-08-01T15:04:36;7.27;;;1.90;;
12171;SDS011;6149;52.418;13.668;2022-08-01T15:07:04;2.47;;;1.90;;
12171;SDS011;6149;52.418;13.668;2022-08-01T15:09:30;2.10;;;1.70;;